Time;durP1;ratioP1;P1;durP2;ratioP2;P2;SDS_P1;SDS_P2;PMS_P1;PMS_P2;Temp;Humidity;BMP_temperature;BMP_pressure;BME280_temperature;BME280_humidity;BME280_pressure;Samples;Min_cycle;Max_cycle;Signal;HPM_P1;HPM_P2
2023/11/29 00:02:19;;;;;;;;;43.00;34.00;;;;;5.91;72.84;100670.47;5060376;28;45323;-58
2023/11/29 00:04:45;;;;;;;;;36.00;33.00;;;;;5.89;73.05;100669.66;5061146;28;45543;-57
2023/11/29 00:07:10;;;;;;;;;30.67;30.67;;;;;5.87;73.41;100674.13;5064639;28;55386;-57
2023/11/29 00:09:35;;;;;;;;;32.67;31.00;;;;;5.85;73.04;100668.03;5072690;27;48880;-57
2023/11/29 00:12:00;;;;;;;;;39.33;30.33;;;;;5.87;73.73;100671.47;5063126;28;66029;-59
2023/11/29 00:14:27;;;;;;;;;31.33;26.33;;;;;5.84;73.25;100669.81;5062722;28;46879;-57
2023/11/29 00:16:52;;;;;;;;;33.67;29.67;;;;;5.82;73.79;100660.22;5051941;28;45453;-57
2023/11/29 00:19:17;;;;;;;;;33.00;27.33;;;;;5.80;73.73;100658.47;5068171;27;45428;-56
2023/11/29 00:21:43;;;;;;;;;33.67;28.00;;;;;5.78;73.64;100655.00;5061325;28;45414;-58
2023/11/29 00:24:09;;;;;;;;;44.33;35.33;;;;;5.78;73.89;100648.88;5059911;28;45468;-56
2023/11/29 00:26:34;;;;;;;;;20.33;20.00;;;;;5.77;73.95;100647.16;5060156;28;45462;-58
2023/11/29 00:29:00;;;;;;;;;31.67;29.33;;;;;5.77;74.26;100647.16;5059361;28;45452;-57
2023/11/29 00:31:25;;;;;;;;;18.67;16.67;;;;;5.76;74.06;100643.66;5059487;28;46662;-56
2023/11/29 00:33:50;;;;;;;;;20.00;14.33;;;;;5.74;74.10;100632.28;5059708;28;46334;-56
2023/11/29 00:36:16;;;;;;;;;18.33;15.33;;;;;5.74;73.74;100627.00;5059724;28;45424;-56
2023/11/29 00:38:41;;;;;;;;;17.00;15.00;;;;;5.75;73.79;100636.66;5058441;28;68101;-58
2023/11/29 00:41:07;;;;;;;;;12.67;12.67;;;;;5.74;74.14;100634.91;5059499;28;45638;-57
2023/11/29 00:43:35;;;;;;;;;19.00;16.00;;;;;5.73;74.18;100635.81;5059186;28;50482;-57
2023/11/29 00:46:00;;;;;;;;;15.00;12.00;;;;;5.73;74.29;100638.47;5059056;28;45293;-57
2023/11/29 00:48:26;;;;;;;;;13.67;11.67;;;;;5.73;74.40;100638.47;5063489;28;67162;-56
2023/11/29 00:50:51;;;;;;;;;14.00;9.67;;;;;5.73;74.40;100638.47;5059408;28;45533;-58
2023/11/29 00:53:17;;;;;;;;;10.00;10.00;;;;;5.73;74.48;100638.47;5058862;28;49457;-57
2023/11/29 00:55:42;;;;;;;;;11.33;11.33;;;;;5.72;74.47;100630.59;5059214;28;55115;-57
2023/11/29 00:58:07;;;;;;;;;2.33;2.33;;;;;5.73;74.60;100622.63;5059682;28;69464;-58
2023/11/29 01:00:33;;;;;;;;;14.33;10.33;;;;;5.75;74.81;100628.72;5058083;28;45441;-58
2023/11/29 01:02:58;;;;;;;;;12.33;10.33;;;;;5.76;74.65;100619.03;5058896;28;45350;-57
2023/11/29 01:05:24;;;;;;;;;10.67;9.67;;;;;5.77;74.61;100626.03;5064168;28;73348;-58
2023/11/29 01:07:49;;;;;;;;;12.33;11.33;;;;;5.79;74.38;100616.31;5058183;28;45348;-57
2023/11/29 01:10:15;;;;;;;;;18.67;10.67;;;;;5.82;74.65;100621.47;5061061;28;45533;-57
2023/11/29 01:12:40;;;;;;;;;10.33;10.33;;;;;5.84;74.56;100614.38;5063162;28;74760;-60
2023/11/29 01:15:06;;;;;;;;;13.67;11.00;;;;;5.87;74.73;100613.41;5062811;28;71972;-57
2023/11/29 01:17:31;;;;;;;;;12.67;11.33;;;;;5.90;74.66;100611.50;5060667;28;45501;-57
2023/11/29 01:19:57;;;;;;;;;11.67;9.67;;;;;5.95;74.92;100616.66;5061161;28;69164;-57
2023/11/29 01:22:22;;;;;;;;;12.00;11.00;;;;;6.01;74.90;100615.59;5057955;28;75504;-57
2023/11/29 01:24:47;;;;;;;;;9.67;6.33;;;;;6.06;74.87;100618.94;5059027;28;73315;-57
2023/11/29 01:27:13;;;;;;;;;11.00;11.00;;;;;6.12;74.86;100618.75;5057986;28;62122;-58
2023/11/29 01:29:38;;;;;;;;;13.33;11.33;;;;;6.18;74.62;100621.19;5061170;28;69728;-58
2023/11/29 01:32:04;;;;;;;;;12.67;11.33;;;;;6.22;74.80;100608.69;5057382;28;74482;-57
2023/11/29 01:34:29;;;;;;;;;13.33;11.00;;;;;6.25;74.47;100613.91;5059725;28;45389;-58
2023/11/29 01:36:54;;;;;;;;;10.33;9.67;;;;;6.28;74.43;100605.84;5057697;28;68735;-57
2023/11/29 01:39:20;;;;;;;;;11.67;10.67;;;;;6.29;74.63;100616.38;5057458;28;61755;-58
2023/11/29 01:41:45;;;;;;;;;14.33;14.33;;;;;6.32;74.31;100617.19;5058560;28;46842;-57
2023/11/29 01:44:11;;;;;;;;;20.67;16.00;;;;;6.33;74.29;100619.78;5058368;28;45348;-57
2023/11/29 01:46:36;;;;;;;;;13.00;11.67;;;;;6.35;74.00;100612.66;5058483;28;45946;-58
2023/11/29 01:49:02;;;;;;;;;18.33;15.67;;;;;6.37;74.48;100604.69;5057932;28;57977;-58
2023/11/29 01:51:28;;;;;;;;;17.67;16.67;;;;;6.38;74.56;100601.97;5092302;27;45853;-57
2023/11/29 01:53:53;;;;;;;;;17.00;13.00;;;;;6.41;74.38;100604.53;5060371;28;60779;-57
2023/11/29 01:56:21;;;;;;;;;14.33;10.67;;;;;6.43;74.09;100600.03;5056367;28;69751;-57
2023/11/29 01:58:46;;;;;;;;;14.67;12.33;;;;;6.46;74.32;100599.91;5058294;28;45485;-57
2023/11/29 02:01:13;;;;;;;;;11.33;9.67;;;;;6.49;74.28;100598.94;5057447;28;67041;-57
2023/11/29 02:03:39;;;;;;;;;12.67;12.67;;;;;6.52;74.71;100601.50;5058552;28;45247;-57
2023/11/29 02:06:05;;;;;;;;;13.00;10.33;;;;;6.55;74.68;100596.06;5058082;28;45474;-57
2023/11/29 02:08:31;;;;;;;;;13.33;13.00;;;;;6.58;74.26;100596.00;5057188;28;45752;-57
2023/11/29 02:10:56;;;;;;;;;13.67;10.00;;;;;6.61;74.53;100602.94;5058875;28;48063;-58
2023/11/29 02:13:21;;;;;;;;;12.00;11.00;;;;;6.64;74.41;100607.25;5057585;28;72105;-57
2023/11/29 02:15:47;;;;;;;;;8.00;4.67;;;;;6.67;74.61;100604.47;5061227;28;68301;-57
2023/11/29 02:18:13;;;;;;;;;11.00;11.00;;;;;6.69;74.49;100597.34;5057345;28;66435;-57
2023/11/29 02:20:39;;;;;;;;;11.00;9.33;;;;;6.70;74.50;100602.59;5091640;27;45490;-57
2023/11/29 02:23:10;;;;;;;;;9.00;9.00;;;;;6.72;74.67;100598.09;5057520;28;45480;-57
2023/11/29 02:25:35;;;;;;;;;11.33;9.00;;;;;6.73;74.71;100605.13;5056642;28;45378;-58
2023/11/29 02:28:00;;;;;;;;;10.00;9.00;;;;;6.77;74.55;100608.50;5056410;28;70689;-57
2023/11/29 02:30:26;;;;;;;;;11.00;11.00;;;;;6.79;74.41;100602.25;5056513;28;75576;-57
2023/11/29 02:32:51;;;;;;;;;8.00;7.33;;;;;6.79;74.49;100594.31;5056392;28;70818;-58
2023/11/29 02:35:17;;;;;;;;;11.67;9.00;;;;;6.81;74.29;100582.84;5057891;28;45493;-58
2023/11/29 02:37:42;;;;;;;;;9.00;9.00;;;;;6.81;74.25;100582.84;5057195;28;45432;-58
2023/11/29 02:40:08;;;;;;;;;9.33;9.33;;;;;6.81;74.48;100580.19;5059916;28;63055;-58
2023/11/29 02:42:33;;;;;;;;;10.33;10.33;;;;;6.82;74.57;100581.88;5058390;28;45352;-58
2023/11/29 02:44:58;;;;;;;;;17.33;11.67;;;;;6.82;74.65;100573.97;5057204;28;59136;-58
2023/11/29 02:47:24;;;;;;;;;12.67;12.00;;;;;6.82;74.45;100576.59;5058917;28;45649;-58
2023/11/29 02:49:49;;;;;;;;;11.00;8.67;;;;;6.81;74.43;100577.53;5056842;28;75412;-58
2023/11/29 02:52:15;;;;;;;;;15.33;12.33;;;;;6.80;74.38;100574.03;5056546;28;61647;-57
2023/11/29 02:54:40;;;;;;;;;21.67;15.00;;;;;6.82;74.51;100573.97;5056483;28;45407;-57
2023/11/29 02:57:05;;;;;;;;;14.33;13.00;;;;;6.84;74.49;100570.34;5056107;28;70538;-57
2023/11/29 02:59:31;;;;;;;;;14.33;14.33;;;;;6.84;74.77;100575.63;5056271;28;46082;-57
2023/11/29 03:01:56;;;;;;;;;12.67;12.67;;;;;6.84;74.79;100578.28;5055920;28;73078;-57
2023/11/29 03:04:21;;;;;;;;;12.67;12.00;;;;;6.85;74.83;100571.22;5062026;28;68311;-57
2023/11/29 03:06:47;;;;;;;;;13.33;12.67;;;;;6.83;74.89;100566.00;5056963;28;56972;-57
2023/11/29 03:09:12;;;;;;;;;14.00;12.00;;;;;6.83;75.02;100563.34;5060038;28;45458;-57
2023/11/29 03:11:37;;;;;;;;;16.00;13.33;;;;;6.83;75.13;100563.34;5056299;28;73000;-57
2023/11/29 03:14:03;;;;;;;;;14.67;12.33;;;;;6.83;74.97;100562.47;5057150;28;45662;-57
2023/11/29 03:16:28;;;;;;;;;13.00;12.00;;;;;6.84;75.08;100564.19;5055988;28;45465;-57
2023/11/29 03:18:53;;;;;;;;;20.67;15.67;;;;;6.84;75.01;100564.19;5056479;28;74405;-57
2023/11/29 03:21:19;;;;;;;;;15.33;14.00;;;;;6.82;74.83;100552.81;5056275;28;72172;-57
2023/11/29 03:23:44;;;;;;;;;13.33;12.00;;;;;6.81;74.81;100561.69;5056242;28;65601;-58
2023/11/29 03:26:10;;;;;;;;;16.00;13.00;;;;;6.82;74.69;100550.16;5055040;28;45586;-58
2023/11/29 03:28:35;;;;;;;;;16.00;16.00;;;;;6.83;74.79;100546.59;5056178;28;47105;-56
2023/11/29 03:31:00;;;;;;;;;15.33;14.33;;;;;6.83;74.45;100544.84;5058446;28;68859;-57
2023/11/29 03:33:26;;;;;;;;;10.67;10.67;;;;;6.84;74.63;100537.75;5056632;28;52069;-57
2023/11/29 03:35:51;;;;;;;;;15.00;11.00;;;;;6.84;75.13;100532.47;5061100;28;45806;-56
2023/11/29 03:38:16;;;;;;;;;10.00;10.00;;;;;6.82;74.41;100529.00;5059496;28;47075;-58
2023/11/29 03:40:42;;;;;;;;;9.67;9.67;;;;;6.78;74.31;100531.78;5055229;28;66276;-57
2023/11/29 03:43:07;;;;;;;;;13.00;11.67;;;;;6.75;74.38;100526.63;5058805;28;45627;-57
2023/11/29 03:45:32;;;;;;;;;9.33;9.00;;;;;6.74;74.59;100529.31;5059944;28;70364;-59
2023/11/29 03:47:58;;;;;;;;;14.00;14.00;;;;;6.73;74.23;100523.16;5064687;28;45736;-59
2023/11/29 03:50:23;;;;;;;;;15.00;12.00;;;;;6.70;74.19;100528.59;5059590;28;63392;-58
2023/11/29 03:52:48;;;;;;;;;12.33;9.00;;;;;6.71;74.46;100514.41;5059252;28;68598;-57
2023/11/29 03:55:14;;;;;;;;;10.67;7.33;;;;;6.69;74.48;100508.34;5060081;28;45556;-58
2023/11/29 03:57:39;;;;;;;;;11.67;11.67;;;;;6.69;74.95;100511.00;5060052;28;45538;-57
2023/11/29 04:00:05;;;;;;;;;14.33;11.00;;;;;6.68;74.95;100511.91;5061473;28;45787;-57
2023/11/29 04:02:30;;;;;;;;;12.33;11.33;;;;;6.66;74.59;100508.44;5059874;28;45501;-58
2023/11/29 04:04:56;;;;;;;;;15.00;13.00;;;;;6.64;74.37;100506.81;5059454;28;45452;-57
2023/11/29 04:07:21;;;;;;;;;13.00;13.00;;;;;6.58;74.72;100497.31;5063915;28;45537;-57
2023/11/29 04:09:47;;;;;;;;;12.33;10.33;;;;;6.54;74.77;100501.84;5059194;28;72972;-57
2023/11/29 04:12:12;;;;;;;;;11.50;11.00;;;;;6.51;74.95;100501.97;5059510;28;45382;-57
2023/11/29 04:14:37;;;;;;;;;10.67;10.00;;;;;6.50;75.17;100496.75;5057379;28;66076;-57
2023/11/29 04:17:03;;;;;;;;;10.33;9.00;;;;;6.47;74.90;100492.44;5060183;28;74173;-57
2023/11/29 04:19:28;;;;;;;;;6.00;5.00;;;;;6.42;74.98;100487.31;5059984;28;45430;-57
2023/11/29 04:21:53;;;;;;;;;11.00;9.33;;;;;6.41;75.24;100492.69;5059622;28;45813;-58
2023/11/29 04:24:19;;;;;;;;;13.00;11.00;;;;;6.41;75.19;100479.47;5058490;28;45461;-57
2023/11/29 04:26:44;;;;;;;;;11.33;10.33;;;;;6.39;75.20;100492.75;5059320;28;45406;-60
2023/11/29 04:29:10;;;;;;;;;10.00;9.00;;;;;6.36;74.95;100487.59;5063810;28;45518;-57
2023/11/29 04:31:37;;;;;;;;;15.00;10.33;;;;;6.33;74.95;100492.09;5060239;28;45257;-57
2023/11/29 04:34:03;;;;;;;;;12.33;10.67;;;;;6.27;75.39;100499.34;5058564;28;45472;-56
2023/11/29 04:36:29;;;;;;;;;9.33;8.33;;;;;6.24;75.57;100482.75;5062006;28;45515;-58
2023/11/29 04:38:54;;;;;;;;;11.67;11.00;;;;;6.21;75.75;100488.16;5060020;28;71892;-57
2023/11/29 04:41:20;;;;;;;;;11.00;9.67;;;;;6.18;75.80;100483.84;5058656;28;45401;-57
2023/11/29 04:43:46;;;;;;;;;12.67;8.67;;;;;6.15;75.60;100483.94;5058088;28;45599;-57
2023/11/29 04:46:12;;;;;;;;;10.33;9.33;;;;;6.12;75.86;100479.63;5059415;28;75780;-58
2023/11/29 04:48:38;;;;;;;;;11.67;9.00;;;;;6.10;75.74;100470.91;5058381;27;45379;-57
2023/11/29 04:51:03;;;;;;;;;11.00;10.00;;;;;6.06;76.06;100482.50;5059250;28;45252;-57
2023/11/29 04:53:29;;;;;;;;;11.00;7.33;;;;;6.03;76.33;100474.69;5091695;27;45315;-58
2023/11/29 04:55:55;;;;;;;;;12.33;8.67;;;;;6.01;76.25;100473.88;5060106;28;45447;-57
2023/11/29 04:58:21;;;;;;;;;10.67;9.33;;;;;6.00;76.75;100472.16;5058961;28;45368;-57
2023/11/29 05:00:47;;;;;;;;;11.33;9.00;;;;;6.01;76.97;100473.00;5059264;28;45244;-57
2023/11/29 05:03:13;;;;;;;;;13.33;9.33;;;;;6.01;76.86;100465.97;5058833;28;45440;-57
2023/11/29 05:05:38;;;;;;;;;11.67;10.33;;;;;5.99;77.14;100465.16;5060506;28;48209;-57
2023/11/29 05:08:03;;;;;;;;;10.00;10.00;;;;;5.98;77.11;100460.78;5057977;28;70688;-57
2023/11/29 05:10:29;;;;;;;;;6.33;6.33;;;;;5.95;76.67;100461.72;5060170;28;45300;-57
2023/11/29 05:12:54;;;;;;;;;10.00;6.33;;;;;5.91;76.93;100460.13;5057631;28;70249;-57
2023/11/29 05:15:19;;;;;;;;;10.00;10.00;;;;;5.88;77.30;100459.34;5057969;28;75797;-57
2023/11/29 05:17:45;;;;;;;;;10.00;10.00;;;;;5.84;77.00;100453.34;5059156;28;45414;-57
2023/11/29 05:20:11;;;;;;;;;10.67;8.33;;;;;5.81;77.80;100448.16;5058300;28;69484;-57
2023/11/29 05:22:36;;;;;;;;;9.00;8.67;;;;;5.82;77.53;100451.69;5059468;28;45585;-57
2023/11/29 05:25:03;;;;;;;;;12.00;9.00;;;;;5.84;77.78;100455.09;5056065;28;47110;-57
2023/11/29 05:27:28;;;;;;;;;12.00;10.33;;;;;5.86;77.78;100450.66;5059192;28;45489;-56
2023/11/29 05:29:54;;;;;;;;;9.00;9.00;;;;;5.86;77.85;100446.22;5058680;28;45323;-57
2023/11/29 05:32:20;;;;;;;;;10.00;9.00;;;;;5.86;77.89;100442.72;5060595;28;45421;-57
2023/11/29 05:34:45;;;;;;;;;11.67;11.00;;;;;5.87;78.02;100436.53;5061655;28;46282;-58
2023/11/29 05:37:11;;;;;;;;;12.00;10.67;;;;;5.89;78.08;100438.19;5058809;27;61076;-57
2023/11/29 05:39:36;;;;;;;;;8.67;8.33;;;;;5.91;78.04;100438.16;5059160;28;45498;-57
2023/11/29 05:42:04;;;;;;;;;9.67;9.00;;;;;5.93;77.52;100433.66;5061785;28;70713;-58
2023/11/29 05:44:33;;;;;;;;;9.00;9.00;;;;;5.95;77.59;100437.97;5058739;28;46454;-58
2023/11/29 05:46:59;;;;;;;;;10.00;6.33;;;;;5.97;77.71;100440.53;5057975;28;45394;-58
2023/11/29 05:49:24;;;;;;;;;7.00;4.67;;;;;5.97;77.66;100441.41;5058890;28;45437;-58
2023/11/29 05:51:49;;;;;;;;;9.33;7.33;;;;;6.01;77.65;100446.59;5060681;28;52160;-58
2023/11/29 05:54:15;;;;;;;;;9.33;5.00;;;;;6.02;77.68;100445.69;5057021;28;67161;-58
2023/11/29 05:56:40;;;;;;;;;9.00;6.33;;;;;6.05;77.56;100442.94;5059182;28;72187;-59
2023/11/29 05:59:05;;;;;;;;;8.33;5.67;;;;;6.07;77.71;100444.59;5058325;28;69326;-57
2023/11/29 06:01:31;;;;;;;;;6.33;5.00;;;;;6.10;77.90;100444.50;5063864;28;45475;-59
2023/11/29 06:03:57;;;;;;;;;5.00;5.00;;;;;6.13;77.79;100441.72;5057521;28;46486;-57
2023/11/29 06:06:22;;;;;;;;;5.00;5.00;;;;;6.16;77.38;100437.28;5057708;28;45648;-57
2023/11/29 06:08:48;;;;;;;;;5.00;5.00;;;;;6.19;77.25;100437.16;5056175;28;67728;-57
2023/11/29 06:11:13;;;;;;;;;4.33;4.33;;;;;6.20;77.56;100442.38;5057752;28;45374;-58
2023/11/29 06:13:40;;;;;;;;;8.67;6.00;;;;;6.22;77.47;100437.91;5056381;28;46535;-58
2023/11/29 06:16:07;;;;;;;;;9.00;5.00;;;;;6.25;77.69;100434.28;5057499;28;45573;-58
2023/11/29 06:18:32;;;;;;;;;4.00;4.00;;;;;6.28;77.54;100436.78;5055239;28;45643;-57
2023/11/29 06:20:58;;;;;;;;;5.67;5.00;;;;;6.32;77.43;100434.91;5056310;28;69003;-57
2023/11/29 06:23:23;;;;;;;;;5.00;5.00;;;;;6.35;77.29;100446.22;5057970;28;45741;-57
2023/11/29 06:25:49;;;;;;;;;5.00;5.00;;;;;6.36;77.13;100450.59;5057446;28;45580;-57
2023/11/29 06:28:15;;;;;;;;;5.00;5.00;;;;;6.37;77.12;100441.72;5057061;28;45804;-57
2023/11/29 06:30:41;;;;;;;;;5.33;5.33;;;;;6.37;77.29;100444.38;5058385;28;46482;-57
2023/11/29 06:33:07;;;;;;;;;6.00;4.00;;;;;6.39;77.46;100434.63;5053649;28;48149;-57
2023/11/29 06:35:33;;;;;;;;;6.33;4.33;;;;;6.41;77.40;100435.44;5057372;28;45368;-57
2023/11/29 06:37:58;;;;;;;;;8.00;5.33;;;;;6.41;77.43;100435.44;5053904;28;45471;-57
2023/11/29 06:40:24;;;;;;;;;6.67;4.33;;;;;6.42;77.31;100437.13;5055751;28;53524;-57
2023/11/29 06:42:49;;;;;;;;;4.67;4.67;;;;;6.44;77.15;100440.59;5053480;28;74158;-56
2023/11/29 06:45:19;;;;;;;;;5.00;4.67;;;;;6.44;77.54;100432.66;5055179;28;45382;-57
2023/11/29 06:47:46;;;;;;;;;6.67;5.67;;;;;6.47;77.29;100436.97;5053782;28;45610;-58
2023/11/29 06:50:13;;;;;;;;;9.00;6.67;;;;;6.51;76.75;100435.06;5054998;28;45694;-58
2023/11/29 06:52:39;;;;;;;;;6.00;6.00;;;;;6.54;77.31;100434.94;5054241;28;46409;-57
2023/11/29 06:55:04;;;;;;;;;6.00;6.00;;;;;6.53;76.78;100430.56;5054964;28;45566;-58
2023/11/29 06:57:30;;;;;;;;;6.00;6.00;;;;;6.54;76.74;100422.56;5056933;28;45568;-58
2023/11/29 06:59:55;;;;;;;;;8.00;5.67;;;;;6.54;76.71;100422.56;5056992;28;45477;-59
2023/11/29 07:02:21;;;;;;;;;5.67;5.00;;;;;6.56;76.53;100422.53;5057071;28;46358;-58
2023/11/29 07:04:48;;;;;;;;;6.00;6.00;;;;;6.54;76.76;100421.72;5058159;28;45595;-59
2023/11/29 07:07:15;;;;;;;;;7.00;4.33;;;;;6.52;76.62;100418.28;5056302;28;45500;-58
2023/11/29 07:09:40;;;;;;;;;5.00;5.00;;;;;6.50;76.55;100413.03;5057368;28;45497;-58
2023/11/29 07:12:06;;;;;;;;;9.33;6.00;;;;;6.51;76.72;100413.94;5056479;28;74743;-58
2023/11/29 07:14:31;;;;;;;;;7.33;5.00;;;;;6.49;76.88;100408.69;5062947;28;45476;-58
2023/11/29 07:16:56;;;;;;;;;4.33;4.33;;;;;6.49;76.88;100419.25;5055214;28;69212;-58
2023/11/29 07:19:22;;;;;;;;;6.00;5.00;;;;;6.51;76.91;100416.56;5058891;28;69415;-58
2023/11/29 07:21:47;;;;;;;;;6.67;5.33;;;;;6.54;77.04;100419.09;5060187;28;45474;-58
2023/11/29 07:24:13;;;;;;;;;7.67;5.67;;;;;6.56;76.66;100415.47;5055459;28;71090;-58
2023/11/29 07:26:38;;;;;;;;;9.00;7.33;;;;;6.57;76.64;100417.19;5060354;28;45382;-58
2023/11/29 07:29:04;;;;;;;;;6.67;6.67;;;;;6.59;76.71;100423.25;5059454;28;45462;-58
2023/11/29 07:31:30;;;;;;;;;8.00;7.00;;;;;6.60;76.51;100416.22;5069092;28;45564;-58
2023/11/29 07:33:56;;;;;;;;;7.67;6.00;;;;;6.61;76.99;100415.28;5060184;28;45576;-59
2023/11/29 07:36:22;;;;;;;;;10.00;6.67;;;;;6.62;76.74;100424.91;5060784;28;45335;-59
2023/11/29 07:38:48;;;;;;;;;12.33;7.67;;;;;6.64;77.03;100423.09;5096296;27;45612;-61
2023/11/29 07:41:15;;;;;;;;;4.33;4.33;;;;;6.69;76.83;100417.59;5059824;28;45529;-60
2023/11/29 07:43:40;;;;;;;;;5.00;4.00;;;;;6.75;76.91;100420.00;5063880;28;45615;-61
2023/11/29 07:46:06;;;;;;;;;10.67;7.00;;;;;6.81;76.63;100418.91;5061190;27;45278;-61
2023/11/29 07:48:32;;;;;;;;;4.67;4.67;;;;;6.89;76.51;100425.59;5058928;28;45522;-60
2023/11/29 07:50:58;;;;;;;;;9.00;5.00;;;;;6.95;76.36;100425.34;5061092;28;46311;-61
2023/11/29 07:53:23;;;;;;;;;7.00;6.33;;;;;7.03;76.26;100427.69;5060641;28;45466;-61
2023/11/29 07:55:49;;;;;;;;;7.00;7.00;;;;;7.10;76.16;100434.47;5060061;28;52372;-61
2023/11/29 07:58:14;;;;;;;;;7.33;7.00;;;;;7.14;75.71;100439.59;5061115;28;45335;-60
2023/11/29 08:00:39;;;;;;;;;6.00;5.33;;;;;7.19;75.84;100429.69;5060916;28;64139;-60
2023/11/29 08:03:05;;;;;;;;;9.67;9.67;;;;;7.25;75.65;100427.66;5057533;28;73463;-60
2023/11/29 08:05:30;;;;;;;;;6.00;6.00;;;;;7.27;75.30;100430.22;5059798;28;68086;-60
2023/11/29 08:07:55;;;;;;;;;9.00;9.00;;;;;7.27;75.29;100424.94;5062160;27;70434;-60
2023/11/29 08:10:21;;;;;;;;;7.00;6.00;;;;;7.26;75.01;100421.44;5063231;27;45669;-59
2023/11/29 08:12:47;;;;;;;;;9.33;7.00;;;;;7.26;75.56;100426.72;5060309;28;45468;-60
2023/11/29 08:15:12;;;;;;;;;7.67;6.33;;;;;7.29;75.10;100423.09;5060656;28;45491;-60
2023/11/29 08:17:38;;;;;;;;;5.00;5.00;;;;;7.33;75.32;100423.84;5066855;28;70517;-60
2023/11/29 08:20:07;;;;;;;;;10.33;7.00;;;;;7.37;74.93;100420.97;5064393;28;46051;-60
2023/11/29 08:22:33;;;;;;;;;8.33;7.00;;;;;7.39;74.98;100429.72;5061631;28;45779;-60
2023/11/29 08:24:59;;;;;;;;;10.33;6.67;;;;;7.43;75.00;100426.00;5066451;28;45638;-60
2023/11/29 08:27:24;;;;;;;;;12.00;8.67;;;;;7.51;74.82;100424.81;5063794;28;45443;-60
2023/11/29 08:29:50;;;;;;;;;10.00;7.00;;;;;7.57;75.02;100419.25;5069525;28;75004;-60
2023/11/29 08:32:15;;;;;;;;;9.67;9.67;;;;;7.64;74.73;100426.00;5061367;28;46358;-61
2023/11/29 08:34:41;;;;;;;;;8.67;7.00;;;;;7.72;74.40;100425.69;5065790;28;45443;-60
2023/11/29 08:37:06;;;;;;;;;5.67;5.00;;;;;7.75;74.53;100422.88;5078355;27;45512;-60
2023/11/29 08:39:31;;;;;;;;;11.67;8.67;;;;;7.81;74.33;100425.28;5059746;27;75822;-61
2023/11/29 08:41:57;;;;;;;;;5.00;2.00;;;;;7.82;74.05;100416.38;5059032;28;69178;-61
2023/11/29 08:44:22;;;;;;;;;6.67;6.33;;;;;7.85;73.94;100408.31;5060684;28;45521;-61
2023/11/29 08:46:47;;;;;;;;;6.67;6.33;;;;;7.90;73.70;100416.03;5060414;28;45529;-61
2023/11/29 08:49:13;;;;;;;;;7.67;7.00;;;;;7.94;73.56;100407.91;5057874;28;72135;-61
2023/11/29 08:51:38;;;;;;;;;13.33;10.33;;;;;7.96;73.46;100405.19;5058843;28;62084;-61
2023/11/29 08:54:05;;;;;;;;;10.00;6.00;;;;;7.98;73.34;100402.44;5059209;28;56169;-60
2023/11/29 08:56:30;;;;;;;;;8.67;8.67;;;;;7.97;73.25;100401.59;5060757;28;45552;-60
2023/11/29 08:58:56;;;;;;;;;11.33;6.67;;;;;7.99;73.11;100399.75;5058360;28;74385;-61
2023/11/29 09:01:21;;;;;;;;;7.67;7.67;;;;;8.03;73.38;100398.69;5061144;28;45857;-60
2023/11/29 09:03:47;;;;;;;;;11.00;8.67;;;;;8.07;73.03;100399.38;5059555;28;45362;-60
2023/11/29 09:06:13;;;;;;;;;7.00;7.00;;;;;8.13;73.26;100395.59;5058951;28;45465;-60
2023/11/29 09:08:38;;;;;;;;;8.33;8.00;;;;;8.23;72.84;100396.91;5064541;28;45663;-60
2023/11/29 09:11:04;;;;;;;;;11.67;7.67;;;;;8.35;72.58;100403.41;5063229;28;47828;-60
2023/11/29 09:13:29;;;;;;;;;6.33;6.33;;;;;8.48;72.64;100401.06;5062628;27;45507;-60
2023/11/29 09:15:55;;;;;;;;;6.00;6.00;;;;;8.61;72.07;100396.91;5062226;28;45591;-60
2023/11/29 09:18:21;;;;;;;;;8.67;7.67;;;;;8.71;71.74;100407.94;5062104;28;45966;-60
2023/11/29 09:20:47;;;;;;;;;9.00;8.67;;;;;8.71;71.46;100403.47;5061769;28;45416;-60
2023/11/29 09:23:12;;;;;;;;;8.00;7.33;;;;;8.73;71.21;100409.53;5064525;28;45524;-60
2023/11/29 09:25:37;;;;;;;;;9.33;6.67;;;;;8.73;70.96;100406.91;5058219;28;70196;-60
2023/11/29 09:28:15;;;;;;;;;14.33;8.33;;;;;8.73;71.09;100406.03;5058859;28;71560;-59
2023/11/29 09:30:40;;;;;;;;;10.33;8.33;;;;;8.74;70.86;100403.31;5056001;28;45538;-61
2023/11/29 09:33:06;;;;;;;;;7.00;7.00;;;;;8.77;70.77;100403.19;5092896;27;68270;-62
2023/11/29 09:35:32;;;;;;;;;10.00;10.00;;;;;8.82;70.81;100405.59;5065803;28;45544;-61
2023/11/29 09:37:58;;;;;;;;;4.00;4.00;;;;;8.92;70.22;100403.38;5063142;28;46543;-62
2023/11/29 09:40:23;;;;;;;;;8.67;8.67;;;;;9.42;70.66;100402.59;5060336;28;45590;-61
2023/11/29 09:42:49;;;;;;;;;9.67;8.33;;;;;10.68;70.35;100390.59;5058547;28;69359;-61
2023/11/29 09:45:21;;;;;;;;;5.33;5.33;;;;;11.99;67.28;100390.81;5090714;27;45496;-62
2023/11/29 09:47:47;;;;;;;;;8.67;7.00;;;;;13.03;64.72;100382.34;5060867;28;45427;-62
2023/11/29 09:50:12;;;;;;;;;6.67;6.33;;;;;13.97;62.57;100387.59;5059854;28;71132;-63
2023/11/29 09:52:38;;;;;;;;;5.67;5.67;;;;;14.77;60.11;100379.19;5061548;28;45277;-62
2023/11/29 09:55:04;;;;;;;;;6.67;6.00;;;;;15.50;58.05;100381.72;5058519;28;70403;-62
2023/11/29 09:57:30;;;;;;;;;12.67;8.67;;;;;15.99;57.01;100377.06;5060499;28;45587;-62
2023/11/29 09:59:55;;;;;;;;;8.00;8.00;;;;;16.46;57.14;100368.84;5060965;28;45440;-63
2023/11/29 10:02:21;;;;;;;;;8.67;7.00;;;;;16.77;54.05;100369.00;5058419;28;45602;-62
2023/11/29 10:04:47;;;;;;;;;7.00;7.00;;;;;16.94;53.44;100367.63;5058988;28;45425;-63
2023/11/29 10:07:12;;;;;;;;;6.33;6.00;;;;;16.96;52.66;100361.16;5057971;28;46500;-63
2023/11/29 10:09:38;;;;;;;;;6.33;6.33;;;;;16.89;53.69;100362.59;5058913;28;45491;-63
2023/11/29 10:12:08;;;;;;;;;9.00;8.00;;;;;16.89;52.75;100359.06;5060468;28;45516;-63
2023/11/29 10:14:33;;;;;;;;;6.67;6.67;;;;;16.93;51.93;100357.88;5058420;28;45591;-63
2023/11/29 10:16:58;;;;;;;;;10.33;8.67;;;;;16.86;52.90;100361.03;5056593;28;67153;-63
2023/11/29 10:19:24;;;;;;;;;8.00;6.00;;;;;16.78;51.24;100359.94;5056899;28;45462;-65
2023/11/29 10:21:52;;;;;;;;;9.33;9.33;;;;;16.56;52.18;100352.81;5057483;28;45525;-62
2023/11/29 10:24:26;;;;;;;;;8.00;7.67;;;;;16.44;51.77;100355.56;5052519;28;45347;-64
2023/11/29 10:26:52;;;;;;;;;9.67;9.67;;;;;16.57;52.35;100352.72;5050654;28;46482;-65
2023/11/29 10:29:19;;;;;;;;;14.00;12.67;;;;;16.64;50.60;100353.06;5055031;28;45414;-64
2023/11/29 10:31:46;;;;;;;;;8.00;8.00;;;;;16.34;49.61;100351.91;5042587;28;45525;-64
2023/11/29 10:34:14;;;;;;;;;7.00;7.00;;;;;16.09;50.52;100344.97;5060897;28;46004;-65
2023/11/29 10:36:39;;;;;;;;;11.33;11.00;;;;;16.15;50.37;100334.63;5056518;28;46310;-64
2023/11/29 10:39:08;;;;;;;;;8.33;8.33;;;;;15.90;50.22;100334.88;5058466;28;45511;-66
2023/11/29 10:41:47;;;;;;;;;7.00;7.00;;;;;15.61;49.54;100327.31;5059698;28;45357;-64
2023/11/29 10:44:14;;;;;;;;;8.00;8.00;;;;;15.48;52.05;100322.88;5060947;28;45332;-64
2023/11/29 10:46:40;;;;;;;;;8.33;7.00;;;;;15.48;51.16;100322.03;5056753;28;45384;-65
2023/11/29 10:49:14;;;;;;;;;7.67;7.67;;;;;15.34;51.14;100315.06;5054803;28;45763;-60
2023/11/29 10:51:40;;;;;;;;;7.00;7.00;;;;;15.10;52.61;100305.28;5071484;27;45808;-59
2023/11/29 10:54:06;;;;;;;;;8.67;7.33;;;;;14.72;50.36;100303.72;5055344;28;69231;-58
2023/11/29 10:56:32;;;;;;;;;7.67;6.33;;;;;14.44;51.18;100302.22;5061930;28;74453;-57
2023/11/29 10:59:22;;;;;;;;;10.00;9.00;;;;;14.13;51.91;100308.00;5064257;28;46723;-57
2023/11/29 11:01:47;;;;;;;;;11.33;8.67;;;;;13.82;50.83;100307.53;5060647;28;45419;-57
2023/11/29 11:04:13;;;;;;;;;10.00;10.00;;;;;13.59;53.16;100303.81;5058269;28;45403;-57
2023/11/29 11:06:39;;;;;;;;;10.00;9.00;;;;;13.49;53.37;100300.94;5061097;28;46066;-56
2023/11/29 11:09:33;;;;;;;;;9.00;9.00;;;;;13.49;53.31;100298.28;5059460;28;45540;-58
2023/11/29 11:11:59;;;;;;;;;8.00;8.00;;;;;13.58;53.72;100302.09;5055753;28;45479;-57
2023/11/29 11:14:30;;;;;;;;;12.33;10.67;;;;;13.67;53.62;100293.44;5062998;27;45527;-57
2023/11/29 11:16:58;;;;;;;;;7.33;7.33;;;;;13.68;53.30;100288.97;5060160;28;46328;-57
2023/11/29 11:19:50;;;;;;;;;10.33;8.00;;;;;13.58;53.33;100302.09;5070757;28;45444;-57